ARG1350 SARI-SABE
Flight info
| Callsign | ARG1350 |
|---|---|
| Flight time | N/A |
| Altitude | 32000 |
| Route | NAIDE2C NAIDE UT667 GEMSU UN785 GUA UZ129 PAGON PAGON9R |
| Aircraft | B738/M-SDE2E3FGHIRWXY/LB1 |
Departure
| Time | 2026-04-30 13:34 |
|---|---|
| Airport | Cataratas Del Iguazú International Airport (SARI) |
Arrival
| Time | N/A |
|---|---|
| Airport | Aeroparque Jorge Newbery (SABE) |
| Time | Latitude | Longitude | Altitude | Speed | Heading |
|---|---|---|---|---|---|
| 2026-04-30 13:07 | -25.73211 | -54.47709 | 926 ft | 0 kts | 26° |
| 2026-04-30 13:26 | -25.73245 | -54.47720 | 928 ft | 4 kts | 351° |
| 2026-04-30 13:27 | -25.73266 | -54.47708 | 926 ft | 0 kts | 296° |
| 2026-04-30 13:30 | -25.73249 | -54.47745 | 927 ft | 10 kts | 296° |
| 2026-04-30 13:31 | -25.73226 | -54.47924 | 930 ft | 12 kts | 265° |
| 2026-04-30 13:31 | -25.73249 | -54.48210 | 927 ft | 14 kts | 264° |
| 2026-04-30 13:32 | -25.73259 | -54.48458 | 926 ft | 18 kts | 283° |
| 2026-04-30 13:32 | -25.73137 | -54.48733 | 925 ft | 19 kts | 315° |
| 2026-04-30 13:33 | -25.73125 | -54.48787 | 925 ft | 5 kts | 114° |
| 2026-04-30 13:33 | -25.73517 | -54.47848 | 929 ft | 131 kts | 115° |
| 2026-04-30 13:34 | -25.73964 | -54.46760 | 1048 ft | 173 kts | 114° |
| 2026-04-30 13:34 | -25.75573 | -54.42904 | 3180 ft | 200 kts | 112° |
| 2026-04-30 13:35 | -25.76195 | -54.41410 | 3389 ft | 226 kts | 113° |
| 2026-04-30 13:35 | -25.78410 | -54.38652 | 4015 ft | 271 kts | 162° |
| 2026-04-30 13:36 | -25.82198 | -54.38152 | 5642 ft | 276 kts | 178° |
| 2026-04-30 13:36 | -25.84126 | -54.38038 | 6485 ft | 278 kts | 179° |
| 2026-04-30 13:36 | -25.88062 | -54.37803 | 7934 ft | 288 kts | 178° |
| 2026-04-30 13:37 | -25.90048 | -54.37673 | 8635 ft | 292 kts | 177° |
| 2026-04-30 13:37 | -25.94156 | -54.37389 | 10142 ft | 298 kts | 176° |
| 2026-04-30 13:38 | -25.98543 | -54.37073 | 10725 ft | 335 kts | 176° |
| 2026-04-30 13:38 | -26.00945 | -54.36898 | 10882 ft | 356 kts | 176° |
| 2026-04-30 13:38 | -26.06038 | -54.36524 | 11762 ft | 371 kts | 177° |
| 2026-04-30 13:39 | -26.11181 | -54.36145 | 13042 ft | 375 kts | 177° |
| 2026-04-30 13:39 | -26.16433 | -54.35758 | 14158 ft | 381 kts | 177° |
| 2026-04-30 13:40 | -26.19090 | -54.35561 | 14677 ft | 384 kts | 177° |
| 2026-04-30 13:40 | -26.21763 | -54.35364 | 15201 ft | 387 kts | 177° |
| 2026-04-30 13:40 | -26.24462 | -54.35207 | 15715 ft | 389 kts | 182° |
| 2026-04-30 13:40 | -26.26270 | -54.35473 | 16016 ft | 390 kts | 196° |
| 2026-04-30 13:41 | -26.29684 | -54.36721 | 16709 ft | 392 kts | 200° |
| 2026-04-30 13:41 | -26.32276 | -54.37720 | 17175 ft | 396 kts | 200° |
| 2026-04-30 13:41 | -26.34889 | -54.38725 | 17661 ft | 399 kts | 199° |
| 2026-04-30 13:41 | -26.37525 | -54.39727 | 18155 ft | 401 kts | 199° |
| 2026-04-30 13:42 | -26.40215 | -54.40739 | 18595 ft | 404 kts | 199° |
| 2026-04-30 13:42 | -26.42860 | -54.41728 | 18989 ft | 407 kts | 199° |
| 2026-04-30 13:42 | -26.48315 | -54.43759 | 19789 ft | 413 kts | 200° |
| 2026-04-30 13:43 | -26.51048 | -54.44775 | 20192 ft | 416 kts | 200° |
| 2026-04-30 13:43 | -26.52871 | -54.45454 | 20451 ft | 418 kts | 200° |
| 2026-04-30 13:43 | -26.56541 | -54.46820 | 20958 ft | 422 kts | 200° |
| 2026-04-30 13:43 | -26.59332 | -54.47860 | 21356 ft | 424 kts | 200° |
| 2026-04-30 13:44 | -26.62148 | -54.48910 | 21746 ft | 427 kts | 200° |
| 2026-04-30 13:44 | -26.64976 | -54.49965 | 22116 ft | 430 kts | 201° |
| 2026-04-30 13:44 | -26.67821 | -54.51027 | 22487 ft | 433 kts | 201° |
| 2026-04-30 13:44 | -26.69758 | -54.51755 | 22750 ft | 434 kts | 202° |
| 2026-04-30 13:45 | -26.74984 | -54.55076 | 23470 ft | 434 kts | 216° |
| 2026-04-30 13:45 | -26.78318 | -54.57581 | 23897 ft | 438 kts | 217° |
| 2026-04-30 13:45 | -26.80032 | -54.58870 | 24123 ft | 438 kts | 217° |
| 2026-04-30 13:46 | -26.82568 | -54.60762 | 24452 ft | 439 kts | 217° |
| 2026-04-30 13:46 | -26.85125 | -54.62654 | 24784 ft | 441 kts | 217° |
| 2026-04-30 13:46 | -26.87695 | -54.64543 | 25109 ft | 442 kts | 217° |
| 2026-04-30 13:46 | -26.90271 | -54.66429 | 25428 ft | 444 kts | 217° |
| 2026-04-30 13:47 | -26.92865 | -54.68324 | 25744 ft | 445 kts | 217° |
| 2026-04-30 13:47 | -26.95460 | -54.70220 | 26066 ft | 446 kts | 217° |
| 2026-04-30 13:47 | -26.98065 | -54.72126 | 26373 ft | 448 kts | 217° |
| 2026-04-30 13:47 | -27.00680 | -54.74039 | 26673 ft | 449 kts | 217° |
| 2026-04-30 13:48 | -27.03301 | -54.75959 | 26968 ft | 451 kts | 217° |
| 2026-04-30 13:48 | -27.05934 | -54.77888 | 27245 ft | 453 kts | 217° |
| 2026-04-30 13:48 | -27.08577 | -54.79827 | 27524 ft | 454 kts | 217° |
| 2026-04-30 13:48 | -27.11229 | -54.81773 | 27796 ft | 456 kts | 217° |
| 2026-04-30 13:49 | -27.13886 | -54.83724 | 28062 ft | 457 kts | 217° |
| 2026-04-30 13:49 | -27.16552 | -54.85682 | 28329 ft | 458 kts | 218° |
| 2026-04-30 13:49 | -27.19218 | -54.87642 | 28675 ft | 458 kts | 218° |
| 2026-04-30 13:49 | -27.21880 | -54.89598 | 29119 ft | 456 kts | 218° |
| 2026-04-30 13:50 | -27.24490 | -54.91518 | 29555 ft | 453 kts | 218° |
| 2026-04-30 13:50 | -27.29753 | -54.95396 | 30288 ft | 452 kts | 218° |
| 2026-04-30 13:50 | -27.32370 | -54.97344 | 30660 ft | 448 kts | 222° |
| 2026-04-30 13:51 | -27.34604 | -54.99687 | 31069 ft | 433 kts | 237° |
| 2026-04-30 13:51 | -27.36179 | -55.02503 | 31541 ft | 421 kts | 247° |
| 2026-04-30 13:51 | -27.37494 | -55.05424 | 31996 ft | 416 kts | 248° |
| 2026-04-30 13:51 | -27.38776 | -55.08356 | 32057 ft | 420 kts | 248° |
| 2026-04-30 13:52 | -27.41377 | -55.14296 | 32092 ft | 427 kts | 248° |
| 2026-04-30 13:52 | -27.44062 | -55.20320 | 32093 ft | 434 kts | 248° |
| 2026-04-30 13:53 | -27.46781 | -55.26369 | 32092 ft | 437 kts | 248° |
| 2026-04-30 13:53 | -27.49375 | -55.32139 | 32090 ft | 438 kts | 248° |
| 2026-04-30 13:54 | -27.52128 | -55.38273 | 32083 ft | 439 kts | 248° |
| 2026-04-30 13:54 | -27.54873 | -55.44404 | 32087 ft | 438 kts | 248° |
| 2026-04-30 13:55 | -27.57617 | -55.50543 | 32091 ft | 438 kts | 248° |
| 2026-04-30 13:55 | -27.60388 | -55.56648 | 32074 ft | 440 kts | 243° |
| 2026-04-30 13:56 | -27.62293 | -55.59391 | 32091 ft | 450 kts | 230° |
| 2026-04-30 13:56 | -27.64768 | -55.61611 | 32098 ft | 459 kts | 221° |
| 2026-04-30 13:56 | -27.70120 | -55.65574 | 32083 ft | 461 kts | 219° |
| 2026-04-30 13:57 | -27.75512 | -55.69503 | 32075 ft | 461 kts | 220° |
| 2026-04-30 13:57 | -27.80837 | -55.73453 | 32080 ft | 461 kts | 220° |
| 2026-04-30 13:58 | -27.88849 | -55.79475 | 32077 ft | 461 kts | 220° |
| 2026-04-30 13:59 | -27.94185 | -55.83501 | 32080 ft | 461 kts | 220° |
| 2026-04-30 13:59 | -27.99518 | -55.87526 | 32087 ft | 461 kts | 220° |
| 2026-04-30 14:00 | -28.04853 | -55.91556 | 32083 ft | 461 kts | 220° |
| 2026-04-30 14:00 | -28.12849 | -55.97606 | 32089 ft | 461 kts | 220° |
| 2026-04-30 14:01 | -28.18181 | -56.01646 | 32083 ft | 461 kts | 220° |
| 2026-04-30 14:01 | -28.23510 | -56.05689 | 32081 ft | 461 kts | 220° |
| 2026-04-30 14:02 | -28.28844 | -56.09740 | 32086 ft | 461 kts | 220° |
| 2026-04-30 14:02 | -28.34176 | -56.13795 | 32087 ft | 461 kts | 220° |
| 2026-04-30 14:03 | -28.39501 | -56.17850 | 32086 ft | 461 kts | 220° |
| 2026-04-30 14:03 | -28.44828 | -56.21911 | 32077 ft | 461 kts | 220° |
| 2026-04-30 14:04 | -28.50153 | -56.25976 | 32088 ft | 461 kts | 220° |
| 2026-04-30 14:04 | -28.55478 | -56.30046 | 32090 ft | 461 kts | 220° |
| 2026-04-30 14:05 | -28.60764 | -56.34091 | 32087 ft | 461 kts | 220° |
| 2026-04-30 14:05 | -28.66127 | -56.38200 | 32094 ft | 461 kts | 220° |
| 2026-04-30 14:06 | -28.74109 | -56.44326 | 32089 ft | 462 kts | 220° |
| 2026-04-30 14:07 | -28.82065 | -56.50444 | 32088 ft | 462 kts | 220° |
| 2026-04-30 14:08 | -28.90055 | -56.56598 | 32085 ft | 462 kts | 220° |
| 2026-04-30 14:08 | -28.98048 | -56.62769 | 32083 ft | 462 kts | 220° |
| 2026-04-30 14:09 | -29.03381 | -56.66895 | 32087 ft | 463 kts | 220° |
| 2026-04-30 14:10 | -29.11370 | -56.73085 | 32088 ft | 463 kts | 220° |
| 2026-04-30 14:10 | -29.16700 | -56.77221 | 32091 ft | 463 kts | 220° |
| 2026-04-30 14:11 | -29.22032 | -56.81364 | 32090 ft | 463 kts | 220° |
| 2026-04-30 14:11 | -29.27326 | -56.85483 | 32090 ft | 463 kts | 220° |
| 2026-04-30 14:12 | -29.32653 | -56.89633 | 32090 ft | 463 kts | 220° |
| 2026-04-30 14:12 | -29.37982 | -56.93789 | 32093 ft | 463 kts | 220° |
| 2026-04-30 14:13 | -29.43313 | -56.97953 | 32089 ft | 463 kts | 220° |
| 2026-04-30 14:13 | -29.48638 | -57.02117 | 32081 ft | 464 kts | 220° |
| 2026-04-30 14:14 | -29.53971 | -57.06293 | 32085 ft | 464 kts | 220° |
| 2026-04-30 14:14 | -29.59301 | -57.10473 | 32079 ft | 464 kts | 220° |
| 2026-04-30 14:15 | -29.64630 | -57.14656 | 32082 ft | 464 kts | 220° |
| 2026-04-30 14:15 | -29.69957 | -57.18844 | 32077 ft | 464 kts | 220° |
| 2026-04-30 14:16 | -29.75289 | -57.23041 | 32076 ft | 464 kts | 220° |
| 2026-04-30 14:16 | -29.80613 | -57.27237 | 32081 ft | 464 kts | 220° |
| 2026-04-30 14:17 | -29.85938 | -57.31440 | 32083 ft | 464 kts | 220° |
| 2026-04-30 14:17 | -29.91262 | -57.35647 | 32088 ft | 464 kts | 220° |
| 2026-04-30 14:18 | -29.96552 | -57.39834 | 32087 ft | 464 kts | 220° |
| 2026-04-30 14:18 | -30.04539 | -57.46165 | 32089 ft | 464 kts | 220° |
| 2026-04-30 14:19 | -30.12518 | -57.52502 | 32089 ft | 464 kts | 220° |
| 2026-04-30 14:20 | -30.17839 | -57.56736 | 32092 ft | 464 kts | 220° |
| 2026-04-30 14:20 | -30.25872 | -57.63005 | 32081 ft | 468 kts | 215° |
| 2026-04-30 14:21 | -30.31954 | -57.65802 | 32098 ft | 479 kts | 202° |
| 2026-04-30 14:22 | -30.41572 | -57.69015 | 32093 ft | 479 kts | 202° |
| 2026-04-30 14:22 | -30.51155 | -57.72328 | 32090 ft | 479 kts | 203° |
| 2026-04-30 14:23 | -30.63918 | -57.76809 | 32090 ft | 479 kts | 203° |
| 2026-04-30 14:24 | -30.73483 | -57.80162 | 32091 ft | 479 kts | 203° |
| 2026-04-30 14:25 | -30.86235 | -57.84607 | 32092 ft | 478 kts | 203° |
| 2026-04-30 14:26 | -30.95787 | -57.87949 | 32093 ft | 477 kts | 203° |
| 2026-04-30 14:27 | -31.05320 | -57.91293 | 32086 ft | 477 kts | 203° |
| 2026-04-30 14:27 | -31.11678 | -57.93527 | 32083 ft | 477 kts | 203° |
| 2026-04-30 14:28 | -31.21155 | -57.96862 | 32079 ft | 476 kts | 203° |
| 2026-04-30 14:28 | -31.27501 | -57.99100 | 32080 ft | 476 kts | 203° |
| 2026-04-30 14:29 | -31.39103 | -58.03198 | 32086 ft | 475 kts | 203° |